createdAt,value
2022-07-28T00:02:44.913Z,25.40
2022-07-28T00:12:48.951Z,25.30
2022-07-28T00:22:54.050Z,25.30
2022-07-28T00:32:57.869Z,24.90
2022-07-28T00:43:02.987Z,24.70
2022-07-28T00:53:08.693Z,24.60
2022-07-28T01:03:14.343Z,24.50
2022-07-28T01:13:24.036Z,24.50
2022-07-28T01:23:52.747Z,24.50
2022-07-28T01:34:02.007Z,24.40
2022-07-28T01:44:09.698Z,24.30
2022-07-28T01:54:16.816Z,24.30
2022-07-28T02:04:22.906Z,24.40
2022-07-28T02:14:29.635Z,24.40
2022-07-28T02:24:35.080Z,24.40
2022-07-28T02:34:41.865Z,24.50
2022-07-28T02:44:50.977Z,24.50
2022-07-28T02:54:57.892Z,24.50
2022-07-28T03:05:03.302Z,24.70
2022-07-28T03:15:16.470Z,24.70
2022-07-28T03:25:25.271Z,24.80
2022-07-28T03:35:33.058Z,24.90
2022-07-28T03:45:37.245Z,24.70
2022-07-28T03:55:51.120Z,24.50
2022-07-28T04:05:56.887Z,24.40
2022-07-28T04:16:02.175Z,24.20
2022-07-28T04:26:06.213Z,24.00
2022-07-28T04:36:12.505Z,23.90
2022-07-28T04:46:16.408Z,23.90
2022-07-28T04:56:21.679Z,24.00
2022-07-28T05:06:25.430Z,24.20
2022-07-28T05:16:30.661Z,24.60
2022-07-28T05:26:36.282Z,24.80
2022-07-28T05:36:41.607Z,25.30
2022-07-28T05:46:45.386Z,25.40
2022-07-28T05:56:51.450Z,25.50
2022-07-28T06:06:55.357Z,25.60
2022-07-28T06:17:00.550Z,25.40
2022-07-28T06:27:06.689Z,25.40
2022-07-28T06:37:11.813Z,25.40
2022-07-28T06:47:15.816Z,25.50
2022-07-28T06:57:22.589Z,25.40
2022-07-28T07:07:42.501Z,25.50
2022-07-28T07:17:48.277Z,25.60
2022-07-28T07:27:52.051Z,25.60
2022-07-28T07:37:57.514Z,25.70
2022-07-28T07:48:01.647Z,25.80
2022-07-28T07:58:07.735Z,26.00
2022-07-28T08:08:11.595Z,26.00
2022-07-28T08:18:16.823Z,26.40
2022-07-28T08:28:20.511Z,26.70
2022-07-28T08:38:25.807Z,26.70
2022-07-28T08:48:32.781Z,26.90
2022-07-28T08:58:39.586Z,28.40
2022-07-28T09:08:44.562Z,27.50
2022-07-28T09:18:49.752Z,27.70
2022-07-28T09:28:56.187Z,28.50
2022-07-28T09:39:01.780Z,28.70
2022-07-28T09:49:05.610Z,28.90
2022-07-28T09:59:11.552Z,28.80
2022-07-28T10:09:27.383Z,29.00
2022-07-28T10:19:32.588Z,29.20
2022-07-28T10:29:36.662Z,29.40
2022-07-28T10:39:58.952Z,29.10
2022-07-28T10:50:04.100Z,30.00
2022-07-28T11:00:25.609Z,30.40
2022-07-28T11:10:31.000Z,30.60
2022-07-28T11:21:20.491Z,31.60
2022-07-28T11:32:11.918Z,31.10
2022-07-28T11:42:29.472Z,31.30
2022-07-28T11:52:37.890Z,32.00
2022-07-28T12:02:42.783Z,30.90
2022-07-28T12:12:52.771Z,30.70
2022-07-28T12:22:58.073Z,31.00
2022-07-28T12:33:17.970Z,32.40
2022-07-28T12:43:26.487Z,32.00
2022-07-28T12:53:31.761Z,32.40
2022-07-28T13:03:38.057Z,32.80
2022-07-28T13:13:56.120Z,33.70
2022-07-28T13:23:59.875Z,34.00
2022-07-28T13:34:06.252Z,32.10
2022-07-28T13:44:10.186Z,31.60
2022-07-28T13:54:15.778Z,30.60
2022-07-28T14:04:21.527Z,29.80
2022-07-28T14:14:27.148Z,29.20
2022-07-28T14:24:30.862Z,28.80
2022-07-28T14:34:35.975Z,28.10
2022-07-28T14:44:40.198Z,28.20
2022-07-28T14:54:45.524Z,28.00
2022-07-28T15:04:49.349Z,28.20
2022-07-28T15:14:54.491Z,28.20
2022-07-28T15:24:58.409Z,28.30
2022-07-28T15:35:03.858Z,28.30
2022-07-28T15:45:08.632Z,28.20
2022-07-28T15:55:14.376Z,28.20
2022-07-28T16:05:18.207Z,28.30
2022-07-28T16:15:25.274Z,28.60
2022-07-28T16:25:29.953Z,29.50
2022-07-28T16:35:35.571Z,30.00
2022-07-28T16:45:39.474Z,30.60
2022-07-28T16:55:45.760Z,30.40
2022-07-28T17:05:49.545Z,30.30
2022-07-28T17:15:55.217Z,30.50
2022-07-28T17:36:24.413Z,29.10
2022-07-28T17:46:28.344Z,29.30
2022-07-28T17:56:34.268Z,29.20
2022-07-28T18:06:40.675Z,28.90
2022-07-28T18:16:45.965Z,28.80
2022-07-28T18:26:50.241Z,28.30
2022-07-28T18:36:55.873Z,28.20
2022-07-28T18:46:59.991Z,28.10
2022-07-28T18:57:05.430Z,28.10
2022-07-28T19:07:09.609Z,28.00
2022-07-28T19:17:14.887Z,27.90
2022-07-28T19:27:19.638Z,27.70
2022-07-28T19:37:24.737Z,27.60
2022-07-28T19:47:28.575Z,27.40
2022-07-28T19:57:33.775Z,27.40
2022-07-28T20:07:37.659Z,27.50
2022-07-28T20:17:43.973Z,27.40
2022-07-28T20:27:48.009Z,27.30
2022-07-28T20:37:53.098Z,27.10
2022-07-28T20:47:56.895Z,26.90
2022-07-28T20:58:02.117Z,26.90
2022-07-28T21:08:09.442Z,26.70
2022-07-28T21:18:21.544Z,26.40
2022-07-28T21:28:42.926Z,26.20
2022-07-28T21:38:48.243Z,25.90
2022-07-28T21:48:52.506Z,25.80
2022-07-28T21:58:57.789Z,25.50
2022-07-28T22:09:01.513Z,25.40
2022-07-28T22:19:07.926Z,25.20
2022-07-28T22:29:12.351Z,25.20
2022-07-28T22:39:17.612Z,25.20
2022-07-28T22:49:21.410Z,25.10
2022-07-28T22:59:27.545Z,25.20
2022-07-28T23:09:34.999Z,25.00
2022-07-28T23:19:40.122Z,25.00
2022-07-28T23:29:43.921Z,24.90
2022-07-28T23:39:49.167Z,24.80
2022-07-28T23:49:53.254Z,24.80
2022-07-28T23:59:58.627Z,24.80
